Time;durP1;ratioP1;P1;durP2;ratioP2;P2;SDS_P1;SDS_P2;PMS_P1;PMS_P2;Temp;Humidity;BMP_temperature;BMP_pressure;BME280_temperature;BME280_humidity;BME280_pressure;Samples;Min_cycle;Max_cycle;Signal;HPM_P1;HPM_P2
2021/01/07 00:02:11;;;;;;;26.23;11.27;;;1.70;96.70;;;;;;5012476;28;20037;-83
2021/01/07 00:04:37;;;;;;;27.05;12.65;;;1.60;96.80;;;;;;5031778;28;20366;-82
2021/01/07 00:07:02;;;;;;;19.92;8.75;;;1.50;96.90;;;;;;5014337;28;20599;-83
2021/01/07 00:09:28;;;;;;;18.45;9.73;;;1.70;96.90;;;;;;5020180;28;20029;-83
2021/01/07 00:11:53;;;;;;;18.30;9.18;;;1.80;96.70;;;;;;5027288;28;20026;-83
2021/01/07 00:14:19;;;;;;;17.98;8.95;;;1.80;96.60;;;;;;4994742;28;20075;-82
2021/01/07 00:16:44;;;;;;;19.73;9.73;;;1.80;96.40;;;;;;5026313;28;20037;-82
2021/01/07 00:19:10;;;;;;;22.35;12.05;;;1.60;96.90;;;;;;4991402;28;20099;-82
2021/01/07 00:21:36;;;;;;;26.17;12.45;;;1.70;96.70;;;;;;5024263;28;20026;-83
2021/01/07 00:24:01;;;;;;;24.23;11.25;;;1.80;96.60;;;;;;5009241;28;20037;-83
2021/01/07 00:26:27;;;;;;;18.98;8.77;;;1.70;96.60;;;;;;4993952;28;20418;-82
2021/01/07 00:28:52;;;;;;;20.02;8.80;;;1.70;96.50;;;;;;5021784;28;20025;-83
2021/01/07 00:31:18;;;;;;;18.95;9.60;;;1.80;96.40;;;;;;4993754;28;20397;-82
2021/01/07 00:33:44;;;;;;;18.25;7.82;;;1.80;96.60;;;;;;5025775;28;20645;-82
2021/01/07 00:36:09;;;;;;;23.38;10.60;;;1.70;96.60;;;;;;5009890;28;20063;-82
2021/01/07 00:38:35;;;;;;;7.25;3.95;;;1.80;96.50;;;;;;5020125;28;20037;-82
2021/01/07 00:41:00;;;;;;;15.75;8.07;;;1.80;96.20;;;;;;5010751;28;20528;-82
2021/01/07 00:43:26;;;;;;;19.42;8.48;;;1.80;96.20;;;;;;4996373;28;20107;-82
2021/01/07 00:45:52;;;;;;;14.40;7.07;;;1.80;96.10;;;;;;5022503;28;20108;-82
2021/01/07 00:48:18;;;;;;;18.10;7.68;;;1.80;96.20;;;;;;5008291;28;20436;-80
2021/01/07 00:50:44;;;;;;;15.82;8.10;;;1.90;96.20;;;;;;5007900;28;20032;-82
2021/01/07 00:53:09;;;;;;;15.68;6.70;;;1.90;96.20;;;;;;5006127;28;20060;-81
2021/01/07 00:55:35;;;;;;;14.30;7.53;;;1.80;96.20;;;;;;5022265;28;20033;-81
2021/01/07 00:58:02;;;;;;;19.35;7.95;;;1.80;96.20;;;;;;5007371;28;20165;-82
2021/01/07 01:00:27;;;;;;;12.60;6.88;;;1.80;96.30;;;;;;4994739;28;20029;-82
2021/01/07 01:02:53;;;;;;;8.18;3.78;;;1.80;96.30;;;;;;4986873;28;21093;-82
2021/01/07 01:05:18;;;;;;;11.00;5.72;;;1.70;96.60;;;;;;5004173;28;20042;-81
2021/01/07 01:07:44;;;;;;;7.57;4.15;;;1.90;96.20;;;;;;5004496;28;20030;-82
2021/01/07 01:10:10;;;;;;;12.25;6.50;;;1.90;96.00;;;;;;5023623;28;20041;-83
2021/01/07 01:12:36;;;;;;;10.27;5.78;;;1.90;95.90;;;;;;5009744;28;20044;-81
2021/01/07 01:15:07;;;;;;;13.18;4.93;;;1.80;96.00;;;;;;5023234;28;20498;-82
2021/01/07 01:17:33;;;;;;;15.65;7.45;;;1.80;95.90;;;;;;4994130;28;20740;-82
2021/01/07 01:19:59;;;;;;;13.65;7.53;;;1.80;96.00;;;;;;5006284;28;20547;-82
2021/01/07 01:22:31;;;;;;;11.05;5.60;;;1.70;96.20;;;;;;4993577;28;20033;-81
2021/01/07 01:24:57;;;;;;;14.48;6.97;;;1.80;96.20;;;;;;5022534;28;20076;-81
2021/01/07 01:27:23;;;;;;;12.10;6.60;;;1.90;96.10;;;;;;4993683;28;20037;-81
2021/01/07 01:29:48;;;;;;;13.05;7.50;;;1.80;95.80;;;;;;5003117;28;20520;-81
2021/01/07 01:32:14;;;;;;;6.93;3.35;;;1.80;96.10;;;;;;5023123;28;20033;-82
2021/01/07 01:34:39;;;;;;;15.27;7.63;;;1.80;95.90;;;;;;5023501;28;20124;-81
2021/01/07 01:37:05;;;;;;;15.43;8.48;;;1.80;95.90;;;;;;5007335;28;20362;-82
2021/01/07 01:39:31;;;;;;;15.90;8.45;;;1.80;95.90;;;;;;5003050;28;20147;-81
2021/01/07 01:41:56;;;;;;;20.20;11.68;;;1.80;95.90;;;;;;4993869;28;20033;-81
2021/01/07 01:44:23;;;;;;;14.45;7.95;;;1.80;95.90;;;;;;4996714;28;20044;-81
2021/01/07 01:46:48;;;;;;;11.73;4.75;;;1.90;96.10;;;;;;5048377;28;20514;-79
2021/01/07 01:49:14;;;;;;;15.50;8.38;;;1.80;95.70;;;;;;4998448;28;20068;-82
2021/01/07 01:51:40;;;;;;;17.30;8.57;;;1.80;96.00;;;;;;5043240;28;20090;-82
2021/01/07 01:54:06;;;;;;;20.70;9.15;;;1.70;95.90;;;;;;5018704;28;20049;-82
2021/01/07 01:56:31;;;;;;;18.02;9.15;;;1.80;96.00;;;;;;5007702;28;20033;-81
2021/01/07 01:58:57;;;;;;;15.05;8.05;;;1.70;96.10;;;;;;5021668;28;20105;-81
2021/01/07 02:01:22;;;;;;;17.20;8.68;;;1.80;96.10;;;;;;5023934;28;20132;-82
2021/01/07 02:03:48;;;;;;;25.38;11.23;;;1.70;96.10;;;;;;5021720;28;20056;-80
2021/01/07 02:06:18;;;;;;;21.13;10.18;;;1.70;95.90;;;;;;5007092;28;20396;-81
2021/01/07 02:08:44;;;;;;;16.52;7.50;;;1.70;96.00;;;;;;5005102;28;20112;-81
2021/01/07 02:11:10;;;;;;;24.80;9.80;;;1.70;96.00;;;;;;4967760;28;20097;-81
2021/01/07 02:13:36;;;;;;;25.67;11.27;;;1.70;96.00;;;;;;5022572;28;20037;-82
2021/01/07 02:16:02;;;;;;;16.83;8.90;;;1.70;96.20;;;;;;5021820;28;20041;-82
2021/01/07 02:18:28;;;;;;;15.93;5.88;;;1.70;96.10;;;;;;5006679;28;20044;-83
2021/01/07 02:20:53;;;;;;;15.40;8.00;;;1.70;96.00;;;;;;5022257;28;20033;-83
2021/01/07 02:23:19;;;;;;;26.00;12.57;;;1.70;96.00;;;;;;4990590;28;20033;-83
2021/01/07 02:25:44;;;;;;;15.05;7.15;;;1.70;96.00;;;;;;5007192;28;20112;-82
2021/01/07 02:28:10;;;;;;;14.77;7.18;;;1.70;96.00;;;;;;5023376;28;20033;-84
2021/01/07 02:30:35;;;;;;;19.20;9.15;;;1.80;96.00;;;;;;5022948;28;20036;-83
2021/01/07 02:33:01;;;;;;;12.18;5.82;;;1.70;96.00;;;;;;5021868;28;20026;-84
2021/01/07 02:35:27;;;;;;;17.60;8.38;;;1.60;96.00;;;;;;5008076;28;20057;-84
2021/01/07 02:37:52;;;;;;;25.33;12.02;;;1.60;96.10;;;;;;5036240;28;20030;-85
2021/01/07 02:40:18;;;;;;;14.50;5.47;;;1.60;96.20;;;;;;4991329;28;20103;-86
2021/01/07 02:42:43;;;;;;;11.60;6.28;;;1.60;96.10;;;;;;5023933;28;20396;-84
2021/01/07 02:45:09;;;;;;;15.45;7.63;;;1.70;96.00;;;;;;5022394;28;20438;-85
2021/01/07 02:47:38;;;;;;;26.80;13.15;;;1.70;96.10;;;;;;5022507;28;20052;-85
2021/01/07 02:50:05;;;;;;;11.93;7.60;;;1.70;96.10;;;;;;5007616;28;20451;-86
2021/01/07 02:52:30;;;;;;;17.73;8.57;;;1.70;96.10;;;;;;5002440;28;20037;-85
2021/01/07 02:54:56;;;;;;;23.10;10.98;;;1.70;96.10;;;;;;5038549;28;20025;-86
2021/01/07 02:57:21;;;;;;;20.50;9.30;;;1.70;96.10;;;;;;4991502;28;20093;-84
2021/01/07 02:59:47;;;;;;;18.10;7.00;;;1.70;96.00;;;;;;5020301;28;20041;-83
2021/01/07 03:02:12;;;;;;;21.83;11.43;;;1.70;96.10;;;;;;4991321;28;20079;-82
2021/01/07 03:04:38;;;;;;;23.27;10.68;;;1.70;96.10;;;;;;5005840;28;20060;-85
2021/01/07 03:07:03;;;;;;;11.13;5.18;;;1.70;96.10;;;;;;5004738;28;20072;-83
2021/01/07 03:09:29;;;;;;;21.05;8.48;;;1.70;96.20;;;;;;5020716;28;20129;-84
2021/01/07 03:11:54;;;;;;;25.02;10.60;;;1.70;96.10;;;;;;5036964;28;20061;-84
2021/01/07 03:14:20;;;;;;;31.13;13.40;;;1.70;96.10;;;;;;4984951;28;20034;-84
2021/01/07 03:16:46;;;;;;;13.48;7.00;;;1.70;96.10;;;;;;5021533;28;20046;-85
2021/01/07 03:19:11;;;;;;;27.58;8.63;;;1.70;96.10;;;;;;5023066;28;20037;-85
2021/01/07 03:21:41;;;;;;;15.43;8.27;;;1.70;96.20;;;;;;5039220;28;20549;-84
2021/01/07 03:24:08;;;;;;;19.77;10.05;;;1.70;96.20;;;;;;5021690;28;20033;-84
2021/01/07 03:26:33;;;;;;;29.58;13.80;;;1.70;96.00;;;;;;4992521;28;20401;-85
2021/01/07 03:28:59;;;;;;;23.05;9.90;;;1.80;96.20;;;;;;4991804;28;20104;-86
2021/01/07 03:31:24;;;;;;;23.10;9.15;;;1.70;96.10;;;;;;4991917;28;20101;-85
2021/01/07 03:33:50;;;;;;;18.73;6.28;;;1.70;96.10;;;;;;5022658;28;20042;-85
2021/01/07 03:36:15;;;;;;;13.43;7.28;;;1.70;96.00;;;;;;5008480;28;20036;-84
2021/01/07 03:38:41;;;;;;;28.50;13.50;;;1.70;96.10;;;;;;5020057;28;20129;-84
2021/01/07 03:41:06;;;;;;;10.13;5.40;;;1.70;96.10;;;;;;5006303;28;20077;-85
2021/01/07 03:43:32;;;;;;;41.88;19.20;;;1.70;96.30;;;;;;5023070;28;20041;-85
2021/01/07 03:45:57;;;;;;;33.10;15.05;;;1.80;96.00;;;;;;5005412;28;20026;-85
2021/01/07 03:48:23;;;;;;;26.25;9.32;;;1.70;96.10;;;;;;4993945;28;20025;-82
2021/01/07 03:50:48;;;;;;;38.00;15.82;;;1.70;96.00;;;;;;5041790;28;20036;-81
2021/01/07 03:53:14;;;;;;;17.05;7.50;;;1.70;96.00;;;;;;4990510;28;20080;-82
2021/01/07 03:55:39;;;;;;;39.80;16.83;;;1.80;96.10;;;;;;5040339;28;20430;-84
2021/01/07 03:58:05;;;;;;;26.42;10.00;;;1.70;96.20;;;;;;5007705;28;20048;-84
2021/01/07 04:00:31;;;;;;;41.92;18.27;;;1.80;96.10;;;;;;5008157;28;20108;-84
2021/01/07 04:02:56;;;;;;;44.80;12.63;;;1.70;96.20;;;;;;4993693;28;20030;-84
2021/01/07 04:05:22;;;;;;;38.97;17.08;;;1.70;96.20;;;;;;5009246;28;20048;-84
2021/01/07 04:07:47;;;;;;;30.60;14.30;;;1.70;96.20;;;;;;5007970;28;20034;-85
2021/01/07 04:10:13;;;;;;;17.67;8.50;;;1.70;96.20;;;;;;5009333;28;21858;-85
2021/01/07 04:12:38;;;;;;;40.60;18.13;;;1.70;96.30;;;;;;5024750;28;20040;-85
2021/01/07 04:15:05;;;;;;;27.58;12.70;;;1.70;96.10;;;;;;5008915;28;20033;-85
2021/01/07 04:17:31;;;;;;;40.80;19.40;;;1.70;96.10;;;;;;5007254;28;20041;-85
2021/01/07 04:19:56;;;;;;;47.67;22.33;;;1.70;96.20;;;;;;5003883;28;20401;-85
2021/01/07 04:22:22;;;;;;;32.17;15.43;;;1.70;96.30;;;;;;4994185;28;20029;-86
2021/01/07 04:24:47;;;;;;;27.08;13.73;;;1.70;96.20;;;;;;5008113;28;20039;-85
2021/01/07 04:27:13;;;;;;;39.25;18.27;;;1.80;96.10;;;;;;5021511;28;20021;-83
2021/01/07 04:29:38;;;;;;;31.77;13.50;;;1.70;96.20;;;;;;5008166;28;20200;-84
2021/01/07 04:32:04;;;;;;;41.30;19.83;;;1.70;96.30;;;;;;5008752;28;20036;-86
2021/01/07 04:34:30;;;;;;;19.50;8.88;;;1.70;96.20;;;;;;5022671;28;20029;-85
2021/01/07 04:36:55;;;;;;;26.02;11.95;;;1.70;96.10;;;;;;5028603;28;20503;-86
2021/01/07 04:39:21;;;;;;;10.77;5.25;;;1.80;96.10;;;;;;4995325;28;20030;-85
2021/01/07 04:41:46;;;;;;;45.45;21.00;;;1.70;96.20;;;;;;5046985;28;20105;-86
2021/01/07 04:44:12;;;;;;;39.47;17.30;;;1.80;96.10;;;;;;5046993;28;20388;-87
2021/01/07 04:46:38;;;;;;;42.67;19.30;;;1.70;96.10;;;;;;5018167;28;20048;-86
2021/01/07 04:49:03;;;;;;;12.43;7.72;;;1.70;96.10;;;;;;5016833;28;20097;-83
2021/01/07 04:51:29;;;;;;;18.15;9.23;;;1.70;96.10;;;;;;5022925;28;20022;-87
2021/01/07 04:53:54;;;;;;;37.83;17.77;;;1.80;96.10;;;;;;5031047;28;20042;-86
2021/01/07 04:56:20;;;;;;;32.83;12.77;;;1.80;96.10;;;;;;5001827;28;20067;-86
2021/01/07 04:58:46;;;;;;;38.65;18.85;;;1.80;96.00;;;;;;5017598;28;20033;-84
2021/01/07 05:01:11;;;;;;;25.67;10.45;;;1.90;96.10;;;;;;5021381;28;20072;-87
2021/01/07 05:03:37;;;;;;;40.25;18.70;;;1.80;96.10;;;;;;5017142;28;20463;-86
2021/01/07 05:06:03;;;;;;;19.55;9.55;;;1.80;96.10;;;;;;5015725;28;20026;-86
2021/01/07 05:08:31;;;;;;;32.92;16.45;;;1.80;96.00;;;;;;5020375;28;20022;-86
2021/01/07 05:10:57;;;;;;;35.20;17.63;;;1.80;96.10;;;;;;5039636;28;20084;-87
2021/01/07 05:13:24;;;;;;;37.83;17.90;;;1.80;96.10;;;;;;5021379;28;20041;-85
2021/01/07 05:15:50;;;;;;;34.88;16.67;;;1.70;96.10;;;;;;5004341;28;20033;-83
2021/01/07 05:18:16;;;;;;;35.03;15.38;;;1.80;96.10;;;;;;5007155;28;20044;-82
2021/01/07 05:20:42;;;;;;;13.02;5.88;;;1.80;96.10;;;;;;5006327;28;20025;-84
2021/01/07 05:23:08;;;;;;;31.23;16.20;;;1.80;96.10;;;;;;5021658;28;20037;-83
2021/01/07 05:25:34;;;;;;;35.47;17.50;;;1.80;96.00;;;;;;5006404;28;20033;-83
2021/01/07 05:28:00;;;;;;;36.58;17.80;;;1.70;96.10;;;;;;5021941;28;20044;-84
2021/01/07 05:30:30;;;;;;;18.45;8.95;;;1.80;96.00;;;;;;4991068;28;20040;-82
2021/01/07 05:33:08;;;;;;;16.35;8.10;;;1.80;96.10;;;;;;5022383;28;20038;-83
2021/01/07 05:35:34;;;;;;;36.08;17.77;;;1.70;96.20;;;;;;5003641;28;20489;-84
2021/01/07 05:38:02;;;;;;;29.70;13.18;;;1.70;96.10;;;;;;4991211;28;20026;-83
2021/01/07 05:40:28;;;;;;;34.35;14.68;;;1.70;96.10;;;;;;4991290;28;20741;-85
2021/01/07 05:42:58;;;;;;;31.75;15.07;;;1.70;96.10;;;;;;4993466;28;20045;-83
2021/01/07 05:45:25;;;;;;;38.78;17.27;;;1.70;96.20;;;;;;4993068;28;20566;-85
2021/01/07 05:47:51;;;;;;;34.30;15.95;;;1.70;96.20;;;;;;5022942;28;20032;-84
2021/01/07 05:50:20;;;;;;;29.42;14.38;;;1.60;96.20;;;;;;4991262;28;20061;-83
2021/01/07 05:52:47;;;;;;;14.95;7.10;;;1.60;96.20;;;;;;5034044;28;20512;-84
2021/01/07 05:55:13;;;;;;;40.97;17.65;;;1.60;96.20;;;;;;5037340;28;20487;-84
2021/01/07 05:57:40;;;;;;;42.55;20.90;;;1.70;96.20;;;;;;5003089;28;20033;-84
2021/01/07 06:00:10;;;;;;;33.58;17.27;;;1.70;96.10;;;;;;5004224;28;20037;-84
2021/01/07 06:02:36;;;;;;;7.55;3.42;;;1.70;96.30;;;;;;5005619;28;20033;-85
2021/01/07 06:05:04;;;;;;;41.25;21.02;;;1.60;96.20;;;;;;5019050;28;20022;-85
2021/01/07 06:07:29;;;;;;;26.48;12.25;;;1.70;96.20;;;;;;4990774;28;20029;-85
2021/01/07 06:09:55;;;;;;;40.88;18.77;;;1.60;96.30;;;;;;5005096;28;20018;-84
2021/01/07 06:12:20;;;;;;;29.95;14.93;;;1.60;96.30;;;;;;4992714;28;20045;-84
2021/01/07 06:14:46;;;;;;;40.95;17.23;;;1.70;96.20;;;;;;5004063;28;20060;-84
2021/01/07 06:17:14;;;;;;;24.23;11.23;;;1.70;96.30;;;;;;5006208;28;20036;-86
2021/01/07 06:19:42;;;;;;;17.63;7.43;;;1.70;96.20;;;;;;5006061;28;20068;-86
2021/01/07 06:22:12;;;;;;;32.15;17.15;;;1.60;96.20;;;;;;5020651;28;20804;-84
2021/01/07 06:24:38;;;;;;;35.33;13.93;;;1.60;96.30;;;;;;5005695;28;20032;-85
2021/01/07 06:27:30;;;;;;;16.08;8.23;;;1.70;96.30;;;;;;5004918;28;20026;-86
2021/01/07 06:30:11;;;;;;;30.63;13.98;;;1.70;96.20;;;;;;5006571;28;20045;-84
2021/01/07 06:32:37;;;;;;;13.68;5.53;;;1.60;96.40;;;;;;5052631;28;20041;-84
2021/01/07 06:35:09;;;;;;;28.02;14.05;;;1.70;96.30;;;;;;5037606;28;20421;-86
2021/01/07 06:37:38;;;;;;;26.23;11.45;;;1.70;96.40;;;;;;5004741;28;20453;-84
2021/01/07 06:40:11;;;;;;;10.73;6.53;;;1.70;96.20;;;;;;5039449;28;20026;-84
2021/01/07 06:42:40;;;;;;;32.55;13.57;;;1.60;96.30;;;;;;4984428;28;20129;-84
2021/01/07 06:45:07;;;;;;;29.95;14.82;;;1.70;96.40;;;;;;5035737;28;20050;-84
2021/01/07 06:47:33;;;;;;;32.42;12.65;;;1.70;96.20;;;;;;5006481;28;20088;-84
2021/01/07 06:50:00;;;;;;;24.00;11.90;;;1.70;96.20;;;;;;4990164;28;20476;-85
2021/01/07 06:52:27;;;;;;;36.75;17.13;;;1.70;96.30;;;;;;4990706;28;20033;-85
2021/01/07 06:54:53;;;;;;;21.27;11.02;;;1.60;96.30;;;;;;5021071;28;20036;-84
2021/01/07 06:57:18;;;;;;;28.15;11.50;;;1.60;96.40;;;;;;4991763;28;20036;-85
2021/01/07 07:00:00;;;;;;;22.17;8.85;;;1.70;96.40;;;;;;5003628;28;20045;-87
2021/01/07 07:02:26;;;;;;;32.10;15.10;;;1.60;96.40;;;;;;5004918;28;20440;-87
2021/01/07 07:04:58;;;;;;;25.98;12.10;;;1.60;96.40;;;;;;5004890;28;20481;-86
2021/01/07 07:07:38;;;;;;;29.42;14.50;;;1.60;96.40;;;;;;5002983;28;20037;-87
2021/01/07 07:10:18;;;;;;;23.05;12.02;;;1.60;96.30;;;;;;5035200;28;20406;-84
2021/01/07 07:12:50;;;;;;;28.05;14.60;;;1.60;96.40;;;;;;5019701;28;20049;-86
2021/01/07 07:15:17;;;;;;;13.85;7.65;;;1.60;96.40;;;;;;5001303;28;20059;-87
2021/01/07 07:17:46;;;;;;;27.75;13.98;;;1.50;96.50;;;;;;5019594;28;20036;-84
2021/01/07 07:20:17;;;;;;;24.90;12.48;;;1.60;96.60;;;;;;5020692;28;20033;-86
2021/01/07 07:22:42;;;;;;;26.17;13.40;;;1.50;96.50;;;;;;5008086;28;20485;-86
2021/01/07 07:25:08;;;;;;;26.63;11.30;;;1.60;96.60;;;;;;5009166;28;20037;-87
2021/01/07 07:27:58;;;;;;;11.43;6.10;;;1.50;96.50;;;;;;5009654;28;20045;-86
2021/01/07 07:30:24;;;;;;;27.73;13.30;;;1.50;96.60;;;;;;5021764;28;20485;-87
2021/01/07 07:32:50;;;;;;;24.02;12.40;;;1.50;96.60;;;;;;5019232;28;20053;-85
2021/01/07 07:35:25;;;;;;;24.25;12.38;;;1.60;96.60;;;;;;5016901;28;20029;-85
2021/01/07 07:37:50;;;;;;;23.58;12.15;;;1.60;96.50;;;;;;5008372;28;20393;-87
2021/01/07 07:40:38;;;;;;;21.20;10.90;;;1.60;96.50;;;;;;5017296;28;20025;-88
2021/01/07 07:43:05;;;;;;;24.67;11.48;;;1.50;96.50;;;;;;5028675;28;20041;-85
2021/01/07 07:45:34;;;;;;;13.27;5.22;;;1.50;96.50;;;;;;5015351;28;20029;-86
2021/01/07 07:48:00;;;;;;;21.33;10.77;;;1.60;96.60;;;;;;5033205;28;20026;-87
2021/01/07 07:50:30;;;;;;;16.50;8.80;;;1.60;96.50;;;;;;5001821;28;20108;-83
2021/01/07 07:53:11;;;;;;;9.27;3.75;;;1.60;96.40;;;;;;5024738;28;20069;-82
2021/01/07 07:55:37;;;;;;;16.77;8.35;;;1.60;96.30;;;;;;5031954;28;20040;-85
2021/01/07 07:58:16;;;;;;;15.18;6.93;;;1.60;96.40;;;;;;5030934;28;20032;-86
2021/01/07 08:00:55;;;;;;;23.70;9.45;;;1.60;96.30;;;;;;4997350;28;20093;-85
2021/01/07 08:03:28;;;;;;;20.92;8.40;;;1.60;96.40;;;;;;5026610;28;20025;-86
2021/01/07 08:05:54;;;;;;;15.95;9.05;;;1.60;96.40;;;;;;5046867;28;20365;-85
2021/01/07 08:08:24;;;;;;;8.27;3.92;;;1.60;96.30;;;;;;5015203;28;20059;-87
2021/01/07 08:10:49;;;;;;;16.02;8.57;;;1.70;96.30;;;;;;5014574;28;20029;-86
2021/01/07 08:13:18;;;;;;;20.17;9.38;;;1.70;96.30;;;;;;5001563;28;20082;-86
2021/01/07 08:15:47;;;;;;;16.75;8.48;;;1.60;96.30;;;;;;5029223;28;20040;-86
2021/01/07 08:18:18;;;;;;;15.80;7.20;;;1.60;96.40;;;;;;5026817;28;20032;-84
2021/01/07 08:20:44;;;;;;;18.65;8.57;;;1.60;96.40;;;;;;5034084;28;20087;-86
2021/01/07 08:23:10;;;;;;;15.55;8.27;;;1.70;96.40;;;;;;5027713;28;20400;-87
2021/01/07 08:25:36;;;;;;;13.43;6.78;;;1.60;96.40;;;;;;5020203;28;20503;-85
2021/01/07 08:28:30;;;;;;;5.38;2.95;;;1.70;96.40;;;;;;5043109;28;20029;-86
2021/01/07 08:31:20;;;;;;;18.60;7.32;;;1.70;96.20;;;;;;5027465;28;20439;-87
2021/01/07 08:33:47;;;;;;;16.67;7.97;;;1.70;96.20;;;;;;4998732;28;20045;-86
2021/01/07 08:36:14;;;;;;;17.13;8.20;;;1.70;96.40;;;;;;5030925;28;20033;-88
2021/01/07 08:38:42;;;;;;;11.80;6.32;;;1.70;96.30;;;;;;5029215;28;20034;-87
2021/01/07 08:41:17;;;;;;;15.27;6.70;;;1.50;96.00;;;;;;5034001;28;20216;-88
2021/01/07 08:43:43;;;;;;;15.57;7.72;;;1.70;96.20;;;;;;5013962;28;20457;-87
2021/01/07 08:46:16;;;;;;;15.10;7.63;;;1.80;96.30;;;;;;5032655;28;20378;-87
2021/01/07 08:48:45;;;;;;;17.98;8.00;;;1.90;96.00;;;;;;5046944;28;20079;-87
2021/01/07 08:51:20;;;;;;;5.60;3.10;;;1.80;96.30;;;;;;5043626;28;20029;-87
2021/01/07 08:53:49;;;;;;;17.85;8.50;;;1.80;96.20;;;;;;5029100;28;20477;-85
2021/01/07 08:56:42;;;;;;;7.32;3.45;;;1.90;96.20;;;;;;5039618;28;20386;-86
2021/01/07 08:59:29;;;;;;;4.85;2.55;;;1.90;96.20;;;;;;5027937;28;20038;-85
2021/01/07 09:02:01;;;;;;;3.30;1.63;;;1.90;96.20;;;;;;5023538;28;20030;-85
2021/01/07 09:04:33;;;;;;;4.05;2.25;;;2.00;96.10;;;;;;5029379;28;20048;-85
2021/01/07 09:07:10;;;;;;;19.90;7.72;;;1.90;96.10;;;;;;5042729;28;20041;-86
2021/01/07 09:09:52;;;;;;;15.80;7.28;;;1.90;96.30;;;;;;5027919;28;20128;-83
2021/01/07 09:12:18;;;;;;;18.00;8.27;;;2.00;96.50;;;;;;5051883;28;20057;-86
2021/01/07 09:15:10;;;;;;;10.35;3.15;;;2.00;96.40;;;;;;5059061;28;20048;-88
2021/01/07 09:17:48;;;;;;;14.43;6.82;;;2.10;96.20;;;;;;5041120;28;20029;-84
2021/01/07 09:20:17;;;;;;;15.60;7.03;;;2.00;96.20;;;;;;5023754;28;20510;-86
2021/01/07 09:22:42;;;;;;;17.10;8.02;;;2.00;96.10;;;;;;5029806;28;20308;-85
2021/01/07 09:25:09;;;;;;;16.77;8.15;;;2.10;96.20;;;;;;5044748;28;20342;-88
2021/01/07 09:27:35;;;;;;;17.85;8.98;;;2.10;96.30;;;;;;5017109;28;20110;-87
2021/01/07 09:30:00;;;;;;;9.07;5.18;;;2.10;96.10;;;;;;5043431;28;20076;-87
2021/01/07 09:32:26;;;;;;;17.13;8.60;;;2.10;96.10;;;;;;5029461;28;20039;-86
2021/01/07 09:34:51;;;;;;;7.63;3.30;;;2.10;96.20;;;;;;5013988;28;20027;-87
2021/01/07 09:37:20;;;;;;;21.85;10.20;;;2.00;96.10;;;;;;4997164;28;20737;-86
2021/01/07 09:39:46;;;;;;;21.25;9.48;;;2.10;96.20;;;;;;4991341;28;20029;-84
2021/01/07 09:42:12;;;;;;;21.83;9.02;;;2.10;96.30;;;;;;5017196;28;20021;-85
2021/01/07 09:44:38;;;;;;;17.77;8.75;;;2.10;96.40;;;;;;5024479;28;20388;-84
2021/01/07 09:47:03;;;;;;;26.98;11.73;;;2.20;96.30;;;;;;5026248;28;20033;-84
2021/01/07 09:49:31;;;;;;;18.58;8.75;;;2.20;96.60;;;;;;5014383;28;20028;-83
2021/01/07 09:51:58;;;;;;;12.07;4.90;;;2.30;96.40;;;;;;4999802;28;20502;-81
2021/01/07 09:54:24;;;;;;;6.85;3.28;;;2.30;96.50;;;;;;5011337;28;20145;-82
2021/01/07 09:56:55;;;;;;;12.90;6.13;;;2.30;96.30;;;;;;5028571;28;20118;-82
2021/01/07 09:59:21;;;;;;;19.38;10.25;;;2.30;96.30;;;;;;4999946;28;20446;-83
2021/01/07 10:01:47;;;;;;;13.93;7.65;;;2.30;96.30;;;;;;5025341;28;20353;-83
2021/01/07 10:04:14;;;;;;;19.52;9.02;;;2.30;96.10;;;;;;5025853;28;20111;-83
2021/01/07 10:06:41;;;;;;;10.73;5.95;;;2.30;96.20;;;;;;5025551;28;20029;-82
2021/01/07 10:09:10;;;;;;;16.42;8.38;;;2.30;96.30;;;;;;5021708;28;20451;-83
2021/01/07 10:11:36;;;;;;;18.92;8.55;;;2.20;96.30;;;;;;5016472;28;20437;-83
2021/01/07 10:14:02;;;;;;;12.68;7.07;;;2.20;96.10;;;;;;5027787;28;20033;-82
2021/01/07 10:16:27;;;;;;;12.15;5.72;;;2.30;96.30;;;;;;5011610;28;20145;-82
2021/01/07 10:18:53;;;;;;;23.75;13.40;;;2.40;96.30;;;;;;5044605;28;20039;-82
2021/01/07 10:21:21;;;;;;;12.65;6.47;;;2.40;96.40;;;;;;5032457;28;20094;-81
2021/01/07 10:23:47;;;;;;;16.83;8.05;;;2.30;96.30;;;;;;5022249;28;20041;-82
2021/01/07 10:26:12;;;;;;;22.10;10.20;;;2.30;96.30;;;;;;5041012;28;20546;-82
2021/01/07 10:28:38;;;;;;;11.27;5.47;;;2.30;96.40;;;;;;5027043;28;20036;-81
2021/01/07 10:31:04;;;;;;;22.90;11.73;;;2.30;96.30;;;;;;5028134;28;20087;-82
2021/01/07 10:33:31;;;;;;;3.45;3.03;;;2.30;96.30;;;;;;4998606;28;20091;-80
2021/01/07 10:35:58;;;;;;;23.60;10.55;;;2.40;96.10;;;;;;5024037;28;20136;-81
2021/01/07 10:38:23;;;;;;;15.52;7.72;;;2.40;96.40;;;;;;5013128;28;20029;-81
2021/01/07 10:40:50;;;;;;;22.42;10.27;;;2.40;96.30;;;;;;5029144;28;20369;-80
2021/01/07 10:43:15;;;;;;;18.38;9.90;;;2.40;96.30;;;;;;4997019;28;20519;-82
2021/01/07 10:45:41;;;;;;;27.13;15.15;;;2.40;96.20;;;;;;5027663;28;20025;-81
2021/01/07 10:48:13;;;;;;;17.08;8.77;;;2.50;96.20;;;;;;5006948;28;20032;-83
2021/01/07 10:50:39;;;;;;;14.63;7.40;;;2.50;96.30;;;;;;5028296;28;20488;-82
2021/01/07 10:53:29;;;;;;;25.65;13.02;;;2.40;96.10;;;;;;5026481;28;20036;-83
2021/01/07 10:56:04;;;;;;;20.00;9.85;;;2.50;96.20;;;;;;5025127;28;20025;-83
2021/01/07 10:58:36;;;;;;;12.68;6.45;;;2.40;96.10;;;;;;4999211;28;20033;-84
2021/01/07 11:01:04;;;;;;;28.35;15.25;;;2.40;96.20;;;;;;5043821;28;20033;-83
2021/01/07 11:03:32;;;;;;;8.60;6.32;;;2.40;96.40;;;;;;5015967;28;20030;-82
2021/01/07 11:06:00;;;;;;;20.00;11.70;;;2.50;96.20;;;;;;5063963;28;20029;-83
2021/01/07 11:09:01;;;;;;;23.67;12.07;;;2.40;96.00;;;;;;5014900;28;20041;-84
2021/01/07 11:11:34;;;;;;;25.40;12.77;;;2.40;96.10;;;;;;5010517;28;20040;-85
2021/01/07 11:14:13;;;;;;;18.13;9.50;;;2.50;96.20;;;;;;5016374;28;20034;-84
2021/01/07 11:16:41;;;;;;;23.25;10.40;;;2.50;96.10;;;;;;5011421;28;20098;-84
2021/01/07 11:19:08;;;;;;;17.63;7.90;;;2.50;96.20;;;;;;5012615;28;20034;-87
2021/01/07 11:21:35;;;;;;;12.27;7.07;;;2.50;96.30;;;;;;5037646;28;20041;-87
2021/01/07 11:24:01;;;;;;;25.63;14.50;;;2.50;96.60;;;;;;5028239;28;20030;-82
2021/01/07 11:26:27;;;;;;;21.92;10.45;;;2.60;96.50;;;;;;5026011;28;20450;-84
2021/01/07 11:28:52;;;;;;;26.70;14.48;;;2.50;96.30;;;;;;5008935;28;20033;-84
2021/01/07 11:31:18;;;;;;;24.30;12.05;;;2.50;96.60;;;;;;4993219;28;20036;-83
2021/01/07 11:33:44;;;;;;;17.63;8.63;;;2.60;96.50;;;;;;5001070;28;20453;-83
2021/01/07 11:36:12;;;;;;;15.20;7.97;;;2.50;96.20;;;;;;5007672;28;20052;-83
2021/01/07 11:39:00;;;;;;;16.05;7.85;;;2.60;96.20;;;;;;5022179;28;20037;-83
2021/01/07 11:41:52;;;;;;;20.42;10.93;;;2.70;96.40;;;;;;5002213;28;20029;-83
2021/01/07 11:44:24;;;;;;;20.73;11.63;;;2.60;96.30;;;;;;5008947;28;20040;-83
2021/01/07 11:46:49;;;;;;;28.13;12.73;;;2.60;96.30;;;;;;5024745;28;20049;-84
2021/01/07 11:49:17;;;;;;;24.67;12.30;;;2.70;96.10;;;;;;4990211;28;20034;-83
2021/01/07 11:51:43;;;;;;;13.20;6.13;;;2.80;96.50;;;;;;4998373;28;20555;-83
2021/01/07 11:54:08;;;;;;;15.38;6.97;;;2.90;96.70;;;;;;5040052;28;20033;-84
2021/01/07 11:56:34;;;;;;;16.55;8.90;;;2.80;96.20;;;;;;5024324;28;20069;-83
2021/01/07 11:59:01;;;;;;;24.30;13.02;;;2.90;97.10;;;;;;5008656;28;20087;-83
2021/01/07 12:01:30;;;;;;;16.25;8.13;;;3.10;97.10;;;;;;5011227;28;20045;-83
2021/01/07 12:03:56;;;;;;;21.27;11.15;;;3.10;96.10;;;;;;5022192;28;20378;-82
2021/01/07 12:06:22;;;;;;;21.70;9.25;;;3.20;96.40;;;;;;4991814;28;20044;-83
2021/01/07 12:09:02;;;;;;;24.95;11.73;;;3.10;95.80;;;;;;5017861;28;20037;-83
2021/01/07 12:11:49;;;;;;;14.05;7.47;;;3.00;96.30;;;;;;5038037;28;20046;-84
2021/01/07 12:14:18;;;;;;;23.60;12.75;;;3.10;96.30;;;;;;5038779;28;20037;-84
2021/01/07 12:16:55;;;;;;;24.95;12.07;;;3.10;96.00;;;;;;5023275;28;20045;-83
2021/01/07 12:19:22;;;;;;;21.08;10.70;;;3.20;96.00;;;;;;4994431;28;20045;-84
2021/01/07 12:21:48;;;;;;;19.27;9.68;;;3.10;95.90;;;;;;5006757;28;20041;-86
2021/01/07 12:24:15;;;;;;;17.77;8.48;;;3.10;95.70;;;;;;5021621;28;20061;-85
2021/01/07 12:26:40;;;;;;;13.30;7.75;;;3.00;96.10;;;;;;4988415;28;20040;-86
2021/01/07 12:29:06;;;;;;;13.35;7.18;;;3.10;96.00;;;;;;5021453;28;20025;-85
2021/01/07 12:31:31;;;;;;;16.95;7.85;;;3.20;96.20;;;;;;4990850;28;20045;-85
2021/01/07 12:34:12;;;;;;;19.80;9.45;;;3.10;95.80;;;;;;5022848;28;20484;-84
2021/01/07 12:36:57;;;;;;;19.38;10.10;;;3.20;96.00;;;;;;4987032;28;20110;-85
2021/01/07 12:39:34;;;;;;;9.40;5.35;;;3.20;95.90;;;;;;5018167;28;20112;-83
2021/01/07 12:42:00;;;;;;;6.78;3.80;;;3.10;96.10;;;;;;5024312;28;20034;-84
2021/01/07 12:44:25;;;;;;;16.67;8.25;;;3.20;96.00;;;;;;4990026;28;20449;-84
2021/01/07 12:46:52;;;;;;;18.83;7.05;;;3.10;95.90;;;;;;5006183;28;20072;-84
2021/01/07 12:49:18;;;;;;;3.67;2.83;;;3.10;96.10;;;;;;4991536;28;20034;-84